Time;durP1;ratioP1;P1;durP2;ratioP2;P2;SDS_P1;SDS_P2;PMS_P1;PMS_P2;Temp;Humidity;BMP_temperature;BMP_pressure;BME280_temperature;BME280_humidity;BME280_pressure;Samples;Min_cycle;Max_cycle;Signal;HPM_P1;HPM_P2
2023/11/19 00:01:33;;;;;;;89.60;45.70;;;;;;;-0.21;97.74;100932.00;1727973;83;25634;-47
2023/11/19 00:04:00;;;;;;;90.87;43.00;;;;;;;-0.20;97.85;100942.95;1727942;83;25445;-47
2023/11/19 00:06:27;;;;;;;78.10;37.45;;;;;;;-0.20;97.87;100938.95;1728014;83;25420;-43
2023/11/19 00:08:54;;;;;;;70.62;37.15;;;;;;;-0.24;97.64;100936.42;1728037;83;27831;-43
2023/11/19 00:11:22;;;;;;;67.80;33.38;;;;;;;-0.25;97.73;100941.47;1727932;83;25591;-44
2023/11/19 00:13:49;;;;;;;67.90;33.55;;;;;;;-0.25;97.91;100944.92;1727980;83;25489;-44
2023/11/19 00:16:16;;;;;;;66.00;32.30;;;;;;;-0.26;97.94;100939.83;1727949;83;25527;-43
2023/11/19 00:18:43;;;;;;;67.58;33.25;;;;;;;-0.25;98.09;100949.44;1727974;83;25660;-44
2023/11/19 00:21:10;;;;;;;65.32;33.28;;;;;;;-0.27;98.18;100940.35;1727955;83;27841;-43
2023/11/19 00:23:37;;;;;;;61.08;32.73;;;;;;;-0.24;98.15;100942.58;1725544;83;25435;-43
2023/11/19 00:26:05;;;;;;;70.65;33.50;;;;;;;-0.22;98.18;100938.37;1725633;83;25469;-43
2023/11/19 00:28:34;;;;;;;68.37;33.53;;;;;;;-0.20;98.26;100940.28;1725629;83;25664;-44
2023/11/19 00:31:00;;;;;;;73.97;34.53;;;;;;;-0.19;98.29;100929.92;1725645;83;25491;-43
2023/11/19 00:33:27;;;;;;;61.70;33.33;;;;;;;-0.19;98.27;100920.62;1725627;83;28484;-45
2023/11/19 00:35:53;;;;;;;66.40;32.28;;;;;;;-0.17;98.32;100921.73;1725534;83;25615;-42
2023/11/19 00:38:20;;;;;;;60.78;32.10;;;;;;;-0.18;98.21;100923.59;1725664;83;25458;-43
2023/11/19 00:40:46;;;;;;;65.60;32.03;;;;;;;-0.16;98.19;100930.02;1725613;83;25994;-43
2023/11/19 00:43:14;;;;;;;63.05;32.83;;;;;;;-0.17;98.26;100927.88;1725682;83;25459;-41
2023/11/19 00:45:41;;;;;;;63.25;31.85;;;;;;;-0.16;98.21;100914.86;1725646;83;27554;-41
2023/11/19 00:48:08;;;;;;;65.83;31.95;;;;;;;-0.17;98.29;100906.61;1725624;83;25546;-41
2023/11/19 00:50:36;;;;;;;61.73;31.77;;;;;;;-0.14;98.26;100896.03;1725684;83;25388;-42
2023/11/19 00:53:03;;;;;;;64.60;31.07;;;;;;;-0.14;98.21;100894.70;1725733;83;26013;-42
2023/11/19 00:55:30;;;;;;;63.60;33.73;;;;;;;-0.16;98.08;100888.27;1725385;83;25413;-43
2023/11/19 00:57:57;;;;;;;63.38;31.48;;;;;;;-0.15;98.09;100893.06;1725405;83;28057;-42
2023/11/19 01:00:27;;;;;;;63.55;32.38;;;;;;;-0.15;98.07;100887.25;1724584;83;25947;-44
2023/11/19 01:02:53;;;;;;;65.62;31.25;;;;;;;-0.15;98.00;100887.25;1724859;83;25992;-43
2023/11/19 01:05:22;;;;;;;65.00;30.88;;;;;;;-0.16;98.02;100889.59;1725315;83;25843;-42
2023/11/19 01:07:50;;;;;;;66.55;30.77;;;;;;;-0.16;97.98;100882.15;1725815;83;29909;-43
2023/11/19 01:10:16;;;;;;;62.55;32.20;;;;;;;-0.13;97.95;100881.70;1725666;83;28010;-43
2023/11/19 01:12:43;;;;;;;66.35;31.73;;;;;;;-0.14;97.91;100883.53;1725650;83;25471;-42
2023/11/19 01:15:10;;;;;;;66.33;31.85;;;;;;;-0.14;98.00;100879.55;1725651;83;25585;-42
2023/11/19 01:17:38;;;;;;;67.03;31.52;;;;;;;-0.13;97.92;100873.20;1725591;83;25554;-44
2023/11/19 01:20:07;;;;;;;64.67;31.82;;;;;;;-0.14;97.93;100857.47;1725639;83;25641;-43
2023/11/19 01:22:33;;;;;;;70.85;32.85;;;;;;;-0.13;97.93;100859.11;1726638;83;27513;-43
2023/11/19 01:25:00;;;;;;;67.42;31.40;;;;;;;-0.16;97.75;100849.71;1728027;83;25380;-42
2023/11/19 01:27:26;;;;;;;68.95;33.08;;;;;;;-0.17;97.69;100844.12;1728086;83;25564;-41
2023/11/19 01:29:53;;;;;;;63.80;33.38;;;;;;;-0.20;97.63;100844.03;1728042;83;26079;-43
2023/11/19 01:32:20;;;;;;;64.03;32.20;;;;;;;-0.20;97.72;100847.22;1728124;83;25577;-42
2023/11/19 01:34:46;;;;;;;70.10;33.38;;;;;;;-0.20;97.70;100845.36;1728021;83;28202;-42
2023/11/19 01:37:14;;;;;;;69.58;33.05;;;;;;;-0.20;97.73;100847.22;1727970;83;25464;-43
2023/11/19 01:39:45;;;;;;;69.05;33.48;;;;;;;-0.22;97.70;100847.44;1728079;83;25606;-43
2023/11/19 01:42:15;;;;;;;71.02;34.25;;;;;;;-0.21;97.98;100838.41;1728092;83;25507;-47
2023/11/19 01:44:42;;;;;;;71.95;34.00;;;;;;;-0.17;98.11;100836.14;1728164;83;25637;-42
2023/11/19 01:47:10;;;;;;;71.57;33.63;;;;;;;-0.15;97.92;100839.88;1728152;83;27723;-42
2023/11/19 01:49:37;;;;;;;69.90;33.00;;;;;;;-0.15;97.69;100843.87;1728125;83;25453;-44
2023/11/19 01:52:05;;;;;;;86.15;34.95;;;;;;;-0.17;97.57;100841.45;1728151;83;25448;-43
2023/11/19 01:54:33;;;;;;;77.53;31.48;;;;;;;-0.16;97.56;100843.06;1728245;83;25491;-43
2023/11/19 01:57:00;;;;;;;71.02;33.05;;;;;;;-0.19;97.54;100826.22;1728030;83;25477;-44
2023/11/19 01:59:28;;;;;;;71.37;33.33;;;;;;;-0.22;97.42;100824.84;1728022;83;27504;-47
2023/11/19 02:01:56;;;;;;;68.17;32.70;;;;;;;-0.23;97.60;100819.22;1727902;83;25703;-44
2023/11/19 02:04:25;;;;;;;69.75;32.10;;;;;;;-0.23;97.68;100808.58;1728151;83;25417;-44
2023/11/19 02:06:54;;;;;;;67.12;31.50;;;;;;;-0.22;97.83;100804.89;1727992;83;25552;-46
2023/11/19 02:09:21;;;;;;;71.47;33.80;;;;;;;-0.23;97.75;100801.94;1728034;83;25614;-43
2023/11/19 02:11:51;;;;;;;65.00;32.20;;;;;;;-0.24;97.70;100796.84;1726839;83;27497;-43
2023/11/19 02:14:19;;;;;;;66.60;31.17;;;;;;;-0.28;97.73;100789.03;1726940;83;26158;-44
2023/11/19 02:16:46;;;;;;;65.70;32.33;;;;;;;-0.25;97.94;100793.91;1728083;83;25465;-44
2023/11/19 02:19:13;;;;;;;75.90;32.15;;;;;;;-0.26;98.04;100793.07;1727976;83;26096;-43
2023/11/19 02:21:41;;;;;;;63.98;30.30;;;;;;;-0.25;97.99;100789.91;1728036;83;25412;-43
2023/11/19 02:24:13;;;;;;;66.57;30.65;;;;;;;-0.24;97.95;100792.85;1728109;83;27701;-45
2023/11/19 02:27:00;;;;;;;66.75;31.42;;;;;;;-0.26;97.89;100789.61;1727943;83;25400;-44
2023/11/19 02:29:27;;;;;;;64.72;30.52;;;;;;;-0.25;97.99;100784.59;1727658;82;25423;-44
2023/11/19 02:31:54;;;;;;;68.35;31.42;;;;;;;-0.26;98.04;100779.78;1728032;83;25523;-43
2023/11/19 02:34:21;;;;;;;66.82;31.15;;;;;;;-0.27;97.97;100777.38;1728032;83;25625;-47
2023/11/19 02:36:49;;;;;;;68.25;30.05;;;;;;;-0.28;98.00;100778.39;1727965;83;27387;-43
2023/11/19 02:39:21;;;;;;;70.05;31.33;;;;;;;-0.28;98.14;100773.88;1727933;83;25400;-45
2023/11/19 02:41:44;;;;;;;70.62;30.35;;;;;;;-0.28;98.02;100773.08;1707254;83;25583;-44
2023/11/19 02:44:11;;;;;;;67.90;29.72;;;;;;;-0.28;98.08;100762.45;1727943;83;25873;-43
2023/11/19 02:46:38;;;;;;;68.78;30.95;;;;;;;-0.30;97.99;100761.86;1728003;83;25468;-46
2023/11/19 02:49:06;;;;;;;68.50;32.58;;;;;;;-0.32;98.06;100757.27;1728002;83;27512;-43
2023/11/19 02:51:34;;;;;;;72.22;30.75;;;;;;;-0.33;97.92;100758.32;1727906;83;25573;-44
2023/11/19 02:54:03;;;;;;;73.50;31.68;;;;;;;-0.33;98.12;100758.32;1727970;83;25579;-44
2023/11/19 02:56:34;;;;;;;67.60;31.73;;;;;;;-0.33;98.27;100753.00;1728189;83;25449;-45
2023/11/19 02:58:58;;;;;;;71.33;32.50;;;;;;;-0.33;98.44;100743.17;1727535;83;25633;-44
2023/11/19 03:01:29;;;;;;;68.70;29.82;;;;;;;-0.30;98.57;100740.59;1727974;83;27514;-43
2023/11/19 03:04:00;;;;;;;71.72;31.17;;;;;;;-0.30;98.46;100732.62;1727908;83;26185;-44
2023/11/19 03:06:28;;;;;;;71.20;31.23;;;;;;;-0.32;98.40;100733.34;1727983;83;25541;-44
2023/11/19 03:08:57;;;;;;;73.75;31.40;;;;;;;-0.31;98.61;100731.79;1727947;83;25542;-44
2023/11/19 03:11:24;;;;;;;79.80;33.78;;;;;;;-0.29;98.74;100724.92;1728029;83;25582;-47
2023/11/19 03:13:51;;;;;;;75.80;32.58;;;;;;;-0.27;98.72;100721.54;1727968;83;27547;-44
2023/11/19 03:16:18;;;;;;;72.35;32.25;;;;;;;-0.27;98.64;100714.89;1727846;83;25923;-45
2023/11/19 03:18:45;;;;;;;71.60;32.90;;;;;;;-0.27;98.62;100710.38;1727935;83;25436;-48
2023/11/19 03:21:12;;;;;;;72.75;30.90;;;;;;;-0.29;98.47;100710.30;1727959;83;25852;-46
2023/11/19 03:23:40;;;;;;;70.42;30.75;;;;;;;-0.30;98.53;100713.48;1727931;81;25860;-43
2023/11/19 03:26:08;;;;;;;71.35;31.75;;;;;;;-0.30;98.67;100705.51;1727951;83;27489;-43
2023/11/19 03:28:35;;;;;;;73.05;32.30;;;;;;;-0.28;98.72;100707.41;1727911;83;25650;-44
2023/11/19 03:31:10;;;;;;;80.03;33.40;;;;;;;-0.29;98.53;100707.14;1728052;83;25404;-43
2023/11/19 03:33:37;;;;;;;73.30;32.13;;;;;;;-0.30;98.52;100706.84;1707990;83;25592;-44
2023/11/19 03:36:07;;;;;;;68.60;31.90;;;;;;;-0.29;98.75;100697.00;1727973;83;25582;-47
2023/11/19 03:38:34;;;;;;;71.30;29.75;;;;;;;-0.28;98.86;100687.48;1727936;83;27469;-45
2023/11/19 03:41:01;;;;;;;78.60;31.52;;;;;;;-0.29;98.83;100673.91;1727859;83;25565;-42
2023/11/19 03:43:27;;;;;;;70.35;31.07;;;;;;;-0.27;98.83;100673.16;1727908;83;25481;-43
2023/11/19 03:45:54;;;;;;;72.97;31.45;;;;;;;-0.27;98.92;100669.70;1727871;82;25586;-43
2023/11/19 03:48:21;;;;;;;71.62;30.72;;;;;;;-0.26;99.02;100676.09;1727983;83;25563;-42
2023/11/19 03:50:49;;;;;;;72.78;31.20;;;;;;;-0.23;98.97;100677.50;1727961;83;27509;-43
2023/11/19 03:53:16;;;;;;;70.40;30.35;;;;;;;-0.26;98.73;100676.09;1727860;83;25588;-43
2023/11/19 03:55:43;;;;;;;70.20;30.45;;;;;;;-0.26;98.68;100668.64;1727945;83;25556;-45
2023/11/19 03:58:12;;;;;;;73.15;30.88;;;;;;;-0.28;98.69;100664.08;1727888;83;26332;-46
2023/11/19 04:00:38;;;;;;;78.73;32.37;;;;;;;-0.28;98.73;100670.20;1728182;83;25637;-43
2023/11/19 04:03:05;;;;;;;69.00;30.17;;;;;;;-0.29;98.69;100667.77;1727942;83;28580;-42
2023/11/19 04:05:33;;;;;;;81.92;31.65;;;;;;;-0.30;98.71;100660.84;1727861;83;26049;-42
2023/11/19 04:08:00;;;;;;;79.70;30.32;;;;;;;-0.29;98.92;100654.47;1727948;83;25702;-46
2023/11/19 04:10:27;;;;;;;82.17;32.15;;;;;;;-0.29;99.05;100648.66;1727920;83;26044;-45
2023/11/19 04:12:54;;;;;;;76.85;31.68;;;;;;;-0.28;99.09;100637.49;1727970;83;25594;-43
2023/11/19 04:15:20;;;;;;;73.78;30.77;;;;;;;-0.28;99.14;100642.81;1727938;82;27360;-43
2023/11/19 04:17:47;;;;;;;68.33;30.32;;;;;;;-0.28;99.13;100638.82;1727789;83;25518;-42
2023/11/19 04:20:15;;;;;;;76.75;33.02;;;;;;;-0.28;99.27;100630.84;1727950;83;25581;-42
2023/11/19 04:22:42;;;;;;;82.72;31.87;;;;;;;-0.27;99.34;100633.81;1727820;83;25581;-43
2023/11/19 04:25:09;;;;;;;78.02;29.67;;;;;;;-0.28;99.26;100626.86;1727951;83;25573;-43
2023/11/19 04:27:35;;;;;;;79.97;31.82;;;;;;;-0.31;99.12;100625.98;1727993;83;27541;-42
2023/11/19 04:30:05;;;;;;;75.92;30.40;;;;;;;-0.32;99.17;100621.69;1727858;83;25828;-42
2023/11/19 04:32:32;;;;;;;;;;;;;;;-0.31;99.42;100616.15;1730511;83;25543;-43
2023/11/19 04:34:59;;;;;;;80.72;30.57;;;;;;;-0.29;99.47;100606.13;1727935;83;26071;-44
2023/11/19 04:37:25;;;;;;;85.35;30.37;;;;;;;-0.29;99.42;100606.62;1727920;83;25621;-43
2023/11/19 04:39:52;;;;;;;74.42;29.35;;;;;;;-0.30;99.48;100597.84;1727912;83;27471;-45
2023/11/19 04:42:19;;;;;;;91.95;30.45;;;;;;;-0.31;99.42;100596.73;1727855;83;25465;-44
2023/11/19 04:44:46;;;;;;;79.85;30.90;;;;;;;-0.32;99.43;100598.59;1727898;83;25562;-44
2023/11/19 04:47:14;;;;;;;85.00;31.12;;;;;;;-0.33;99.50;100590.31;1727892;83;26419;-44
2023/11/19 04:49:44;;;;;;;68.78;29.20;;;;;;;-0.32;99.66;100588.46;1727965;83;25463;-43
2023/11/19 04:52:12;;;;;;;84.35;30.37;;;;;;;-0.34;99.66;100573.27;1690161;83;27860;-44
2023/11/19 04:54:46;;;;;;;96.60;32.53;;;;;;;-0.31;99.77;100570.16;1727838;83;25590;-43
2023/11/19 04:57:12;;;;;;;79.85;32.17;;;;;;;-0.31;99.75;100561.66;1727999;82;25411;-44
2023/11/19 04:59:39;;;;;;;90.32;31.80;;;;;;;-0.31;99.79;100560.33;1728024;83;26477;-43
2023/11/19 05:02:06;;;;;;;110.52;33.13;;;;;;;-0.31;99.83;100550.22;1728081;83;25462;-43
2023/11/19 05:04:33;;;;;;;72.87;30.55;;;;;;;-0.31;99.90;100558.20;1728081;83;28009;-44
2023/11/19 05:07:00;;;;;;;86.50;31.87;;;;;;;-0.34;99.70;100554.66;1727951;83;25777;-45
2023/11/19 05:09:26;;;;;;;82.20;30.90;;;;;;;-0.35;99.79;100553.06;1728082;83;25551;-43
2023/11/19 05:11:53;;;;;;;93.47;31.52;;;;;;;-0.35;99.85;100551.73;1728010;83;26505;-44
2023/11/19 05:14:21;;;;;;;100.22;32.48;;;;;;;-0.39;99.81;100550.85;1728100;83;25405;-43
2023/11/19 05:16:49;;;;;;;91.92;32.50;;;;;;;-0.40;99.92;100547.09;1728059;83;28597;-44
2023/11/19 05:19:16;;;;;;;103.60;35.78;;;;;;;-0.41;100.00;100546.30;1727949;83;25669;-44
2023/11/19 05:21:44;;;;;;;106.83;32.65;;;;;;;-0.40;100.00;100540.45;1728052;83;25435;-45
2023/11/19 05:24:14;;;;;;;105.52;32.58;;;;;;;-0.40;100.00;100537.27;1726838;82;25552;-46
2023/11/19 05:26:41;;;;;;;92.53;30.37;;;;;;;-0.40;100.00;100537.27;1725725;83;25448;-43
2023/11/19 05:29:09;;;;;;;97.12;30.65;;;;;;;-0.41;100.00;100529.02;1725701;83;27494;-44
2023/11/19 05:31:40;;;;;;;97.67;31.80;;;;;;;-0.39;100.00;100524.80;1725723;83;25657;-43
2023/11/19 05:34:07;;;;;;;90.67;32.00;;;;;;;-0.37;100.00;100524.05;1725788;83;25546;-44
2023/11/19 05:36:34;;;;;;;89.95;31.40;;;;;;;-0.36;100.00;100526.98;1725665;83;26737;-46
2023/11/19 05:39:00;;;;;;;108.00;32.90;;;;;;;-0.34;100.00;100528.08;1725727;83;25371;-44
2023/11/19 05:41:27;;;;;;;83.80;31.80;;;;;;;-0.33;100.00;100526.52;1725697;83;27431;-46
2023/11/19 05:43:53;;;;;;;80.28;31.10;;;;;;;-0.33;100.00;100523.06;1725584;83;25570;-44
2023/11/19 05:46:20;;;;;;;99.00;32.50;;;;;;;-0.32;100.00;100525.99;1725724;83;25551;-47
2023/11/19 05:48:48;;;;;;;111.32;33.02;;;;;;;-0.31;100.00;100524.44;1725774;83;26307;-42
2023/11/19 05:51:16;;;;;;;77.65;29.90;;;;;;;-0.32;100.00;100526.82;1725762;83;25611;-42
2023/11/19 05:53:45;;;;;;;98.67;31.97;;;;;;;-0.32;100.00;100529.48;1725722;83;27569;-43
2023/11/19 05:56:12;;;;;;;90.77;33.48;;;;;;;-0.32;100.00;100529.98;1725774;83;25606;-45
2023/11/19 05:58:40;;;;;;;90.65;30.43;;;;;;;-0.33;100.00;100529.18;1725657;83;25610;-44
2023/11/19 06:01:07;;;;;;;78.72;28.40;;;;;;;-0.33;100.00;100525.72;1725663;83;25634;-47
2023/11/19 06:03:34;;;;;;;90.25;30.80;;;;;;;-0.33;100.00;100521.20;1725702;83;25448;-47
2023/11/19 06:06:02;;;;;;;88.30;30.40;;;;;;;-0.32;100.00;100520.17;1725671;83;28483;-46
2023/11/19 06:08:30;;;;;;;79.80;30.48;;;;;;;-0.31;100.00;100520.45;1725599;83;25439;-44
2023/11/19 06:10:58;;;;;;;89.90;28.92;;;;;;;-0.30;100.00;100523.41;1725680;83;25637;-44
2023/11/19 06:13:26;;;;;;;107.52;31.93;;;;;;;-0.27;100.00;100526.14;1725653;83;26155;-44
2023/11/19 06:15:53;;;;;;;85.07;30.08;;;;;;;-0.27;100.00;100520.83;1725688;83;25628;-43
2023/11/19 06:18:19;;;;;;;84.37;30.60;;;;;;;-0.28;100.00;100519.99;1725643;83;28122;-43
2023/11/19 06:20:49;;;;;;;87.67;33.02;;;;;;;-0.26;100.00;100511.79;1725616;83;26051;-44
2023/11/19 06:23:17;;;;;;;80.62;30.75;;;;;;;-0.28;100.00;100511.22;1725823;83;25550;-47
2023/11/19 06:25:44;;;;;;;87.67;32.17;;;;;;;-0.25;100.00;100514.75;1725574;83;26021;-44
2023/11/19 06:28:11;;;;;;;90.35;32.73;;;;;;;-0.26;100.00;100502.48;1725719;83;25479;-43
2023/11/19 06:30:38;;;;;;;83.90;29.98;;;;;;;-0.25;100.00;100506.77;1725658;83;27929;-44
2023/11/19 06:33:06;;;;;;;83.97;30.85;;;;;;;-0.25;100.00;100502.78;1725593;83;26356;-43
2023/11/19 06:35:36;;;;;;;83.12;30.30;;;;;;;-0.24;100.00;100507.05;1725657;83;25620;-43
2023/11/19 06:38:04;;;;;;;82.95;30.02;;;;;;;-0.25;100.00;100510.76;1725572;82;26397;-43
2023/11/19 06:40:32;;;;;;;;;;;;;;;-0.24;100.00;100503.05;1728278;83;25635;-43
2023/11/19 06:43:00;;;;;;;77.17;29.37;;;;;;;-0.23;100.00;100500.70;1725657;82;28182;-42
2023/11/19 06:45:27;;;;;;;81.15;29.00;;;;;;;-0.23;100.00;100496.17;1725528;83;25627;-43
2023/11/19 06:47:55;;;;;;;75.22;28.47;;;;;;;-0.25;100.00;100494.28;1725664;83;25424;-43
2023/11/19 06:50:23;;;;;;;75.83;27.73;;;;;;;-0.24;100.00;100487.10;1725624;83;25665;-43
2023/11/19 06:52:50;;;;;;;70.05;28.45;;;;;;;-0.25;100.00;100478.33;1725696;83;25445;-43
2023/11/19 06:55:17;;;;;;;70.40;26.57;;;;;;;-0.27;100.00;100471.11;1725661;83;28188;-43
2023/11/19 06:57:45;;;;;;;69.30;27.95;;;;;;;-0.28;100.00;100468.16;1725567;83;25574;-43
2023/11/19 07:00:13;;;;;;;65.87;26.97;;;;;;;-0.26;100.00;100465.27;1725627;83;25637;-41
2023/11/19 07:02:40;;;;;;;62.30;25.05;;;;;;;-0.27;100.00;100461.01;1725757;83;25533;-43
2023/11/19 07:05:08;;;;;;;67.25;26.30;;;;;;;-0.24;100.00;100460.52;1725693;83;25530;-43
2023/11/19 07:07:35;;;;;;;57.83;25.52;;;;;;;-0.25;100.00;100454.41;1725648;83;28255;-42
2023/11/19 07:10:05;;;;;;;60.00;24.75;;;;;;;-0.24;100.00;100437.92;1725568;83;25603;-42
2023/11/19 07:12:32;;;;;;;57.67;24.15;;;;;;;-0.20;100.00;100446.53;1725675;83;25656;-44
2023/11/19 07:15:00;;;;;;;55.50;23.92;;;;;;;-0.21;100.00;100437.45;1725596;83;25899;-43
2023/11/19 07:17:27;;;;;;;46.50;21.55;;;;;;;-0.20;100.00;100435.90;1725700;83;25625;-43
2023/11/19 07:19:54;;;;;;;51.45;22.85;;;;;;;-0.21;100.00;100438.26;1725583;83;27486;-42
2023/11/19 07:22:21;;;;;;;49.23;21.42;;;;;;;-0.16;100.00;100434.11;1725560;83;25373;-43
2023/11/19 07:24:47;;;;;;;44.70;22.40;;;;;;;-0.13;100.00;100431.78;1725541;83;25909;-42
2023/11/19 07:27:16;;;;;;;40.80;19.65;;;;;;;-0.16;100.00;100424.80;1725595;83;25588;-43
2023/11/19 07:29:44;;;;;;;40.52;20.62;;;;;;;-0.15;100.00;100417.09;1725654;83;25570;-44
2023/11/19 07:32:13;;;;;;;42.83;19.37;;;;;;;-0.18;100.00;100422.38;1725740;83;28063;-43
2023/11/19 07:34:40;;;;;;;37.85;19.37;;;;;;;-0.23;100.00;100422.27;1725589;83;25794;-43
2023/11/19 07:37:08;;;;;;;34.10;18.32;;;;;;;-0.27;100.00;100424.59;1725626;83;25542;-44
2023/11/19 07:39:35;;;;;;;34.88;19.27;;;;;;;-0.30;100.00;100414.42;1725547;83;26271;-44
2023/11/19 07:42:03;;;;;;;37.73;18.37;;;;;;;-0.33;100.00;100420.72;1725651;83;25689;-43
2023/11/19 07:44:30;;;;;;;38.40;18.32;;;;;;;-0.35;100.00;100422.81;1725604;83;27469;-45
2023/11/19 07:46:57;;;;;;;36.68;18.48;;;;;;;-0.38;100.00;100412.91;1725505;83;25786;-44
2023/11/19 07:49:24;;;;;;;35.13;19.07;;;;;;;-0.39;100.00;100415.83;1725620;83;25630;-44
2023/11/19 07:51:52;;;;;;;34.55;18.70;;;;;;;-0.41;100.00;100409.41;1725579;83;25380;-44
2023/11/19 07:54:21;;;;;;;34.98;17.65;;;;;;;-0.39;100.00;100411.31;1725673;83;25663;-43
2023/11/19 07:56:49;;;;;;;36.58;18.20;;;;;;;-0.42;100.00;100401.67;1725598;83;28556;-43
2023/11/19 07:59:16;;;;;;;32.23;17.42;;;;;;;-0.36;100.00;100404.70;1725482;83;26832;-44
2023/11/19 08:01:43;;;;;;;35.88;18.20;;;;;;;-0.32;100.00;100403.72;1687958;83;25595;-44
2023/11/19 08:04:11;;;;;;;33.98;18.00;;;;;;;-0.30;100.00;100393.16;1725543;83;26513;-44
2023/11/19 08:06:38;;;;;;;33.75;17.95;;;;;;;-0.28;100.00;100392.39;1725603;83;25409;-43
2023/11/19 08:09:06;;;;;;;35.78;17.60;;;;;;;-0.24;100.00;100386.91;1725614;83;27841;-45
2023/11/19 08:11:34;;;;;;;30.27;15.90;;;;;;;-0.15;100.00;100390.01;1725503;83;25607;-43
2023/11/19 08:14:01;;;;;;;31.25;16.62;;;;;;;-0.08;100.00;100380.57;1725731;83;25484;-42
2023/11/19 08:16:27;;;;;;;32.28;16.93;;;;;;;-0.08;100.00;100367.27;1725600;83;26584;-44
2023/11/19 08:18:55;;;;;;;34.63;17.73;;;;;;;-0.03;100.00;100368.17;1725601;83;25433;-43
2023/11/19 08:21:22;;;;;;;32.25;18.20;;;;;;;0.06;100.00;100363.81;1725599;82;28494;-44
2023/11/19 08:23:49;;;;;;;30.32;17.00;;;;;;;0.10;100.00;100366.27;1725530;83;25857;-43
2023/11/19 08:26:17;;;;;;;31.30;16.80;;;;;;;0.11;100.00;100359.91;1727671;82;25602;-44
2023/11/19 08:28:45;;;;;;;29.12;17.20;;;;;;;0.13;100.00;100360.48;1727931;83;25596;-43
2023/11/19 08:31:12;;;;;;;33.35;17.57;;;;;;;0.18;100.00;100349.40;1690368;83;25667;-41
2023/11/19 08:33:38;;;;;;;33.58;17.40;;;;;;;0.22;100.00;100354.25;1728145;83;28439;-42
2023/11/19 08:36:08;;;;;;;29.75;16.10;;;;;;;0.21;100.00;100347.33;1728049;83;25960;-44
2023/11/19 08:38:34;;;;;;;31.70;17.17;;;;;;;0.24;100.00;100358.80;1728256;83;25509;-43
2023/11/19 08:41:01;;;;;;;28.95;16.82;;;;;;;0.23;100.00;100349.22;1728120;82;25483;-41
2023/11/19 08:43:28;;;;;;;31.02;16.70;;;;;;;0.25;100.00;100346.59;1728211;83;25464;-44
2023/11/19 08:45:55;;;;;;;31.45;15.83;;;;;;;0.26;100.00;100340.23;1728124;83;28442;-44
2023/11/19 08:48:21;;;;;;;25.97;14.95;;;;;;;0.25;100.00;100329.30;1728080;83;25644;-44
2023/11/19 08:50:48;;;;;;;28.15;16.12;;;;;;;0.31;100.00;100330.22;1728176;83;25460;-43
2023/11/19 08:53:15;;;;;;;30.88;16.50;;;;;;;0.32;100.00;100334.47;1728196;83;25812;-43
2023/11/19 08:55:41;;;;;;;25.17;15.35;;;;;;;0.32;100.00;100329.16;1728185;83;25602;-43
2023/11/19 08:58:08;;;;;;;24.65;14.55;;;;;;;0.41;100.00;100334.38;1728083;83;27830;-44
2023/11/19 09:00:35;;;;;;;25.12;15.58;;;;;;;0.47;100.00;100332.61;1727974;83;25645;-44
2023/11/19 09:03:03;;;;;;;25.05;14.83;;;;;;;0.49;100.00;100327.31;1728102;83;25478;-44
2023/11/19 09:05:29;;;;;;;24.43;15.38;;;;;;;0.53;100.00;100326.33;1728012;83;25593;-42
2023/11/19 09:07:56;;;;;;;27.32;15.32;;;;;;;0.51;100.00;100314.59;1728127;83;25547;-42
2023/11/19 09:10:23;;;;;;;28.62;16.27;;;;;;;0.63;100.00;100315.84;1728063;83;27882;-44
2023/11/19 09:12:50;;;;;;;25.40;15.45;;;;;;;0.66;100.00;100305.22;1728072;83;25598;-43
2023/11/19 09:15:16;;;;;;;23.55;14.33;;;;;;;0.63;99.97;100301.70;1728058;83;25503;-43
2023/11/19 09:17:43;;;;;;;23.90;14.50;;;;;;;0.59;99.74;100301.92;1728043;83;25645;-45
2023/11/19 09:20:15;;;;;;;23.80;14.50;;;;;;;0.58;99.57;100302.95;1728100;83;25441;-43
2023/11/19 09:22:40;;;;;;;23.02;13.98;;;;;;;0.56;99.50;100303.20;1727973;82;27886;-43
2023/11/19 09:25:09;;;;;;;27.25;14.47;;;;;;;0.52;99.34;100304.74;1727326;82;25608;-43
2023/11/19 09:27:36;;;;;;;24.92;14.95;;;;;;;0.52;99.61;100296.76;1725840;83;25589;-45
2023/11/19 09:30:04;;;;;;;27.27;16.60;;;;;;;0.50;99.41;100289.55;1725696;83;25609;-44
2023/11/19 09:32:31;;;;;;;28.85;15.65;;;;;;;0.50;99.61;100290.88;1725876;83;25610;-44
2023/11/19 09:34:58;;;;;;;25.02;14.40;;;;;;;0.50;99.90;100289.02;1725713;83;27353;-47
2023/11/19 09:37:24;;;;;;;26.97;13.90;;;;;;;0.48;99.76;100280.47;1725615;83;25899;-45
2023/11/19 09:39:53;;;;;;;23.65;13.83;;;;;;;0.49;99.73;100278.60;1725720;83;25551;-44
2023/11/19 09:42:20;;;;;;;26.97;14.60;;;;;;;0.47;99.68;100270.86;1725775;83;26321;-44
2023/11/19 09:44:49;;;;;;;29.10;15.35;;;;;;;0.46;99.50;100257.79;1725731;83;25614;-46
2023/11/19 09:47:20;;;;;;;23.85;14.55;;;;;;;0.44;99.65;100254.57;1725844;83;27706;-43
2023/11/19 09:49:50;;;;;;;29.10;16.00;;;;;;;0.45;99.91;100257.53;1725658;83;25564;-45
2023/11/19 09:52:16;;;;;;;32.65;16.82;;;;;;;0.45;99.85;100251.67;1725859;83;25461;-45
2023/11/19 09:54:44;;;;;;;29.72;16.00;;;;;;;0.46;100.00;100245.31;1725679;83;25634;-43
2023/11/19 09:57:13;;;;;;;28.55;15.45;;;;;;;0.48;100.00;100239.22;1725742;83;25488;-43
2023/11/19 09:59:41;;;;;;;29.25;16.20;;;;;;;0.46;99.53;100231.17;1725708;83;28400;-42
2023/11/19 10:02:10;;;;;;;27.82;16.00;;;;;;;0.47;99.95;100226.94;1725644;83;25635;-43
2023/11/19 10:04:39;;;;;;;30.08;15.63;;;;;;;0.51;100.00;100224.60;1725746;83;25460;-42
2023/11/19 10:07:05;;;;;;;32.95;17.07;;;;;;;0.52;100.00;100224.36;1725824;83;26140;-42
2023/11/19 10:09:32;;;;;;;28.85;16.27;;;;;;;0.53;100.00;100219.33;1725762;83;25530;-45
2023/11/19 10:11:59;;;;;;;27.98;16.05;;;;;;;0.57;100.00;100216.98;1725509;83;28584;-43
2023/11/19 10:14:29;;;;;;;26.48;14.70;;;;;;;0.52;99.54;100217.70;1688116;82;25626;-43
2023/11/19 10:16:56;;;;;;;27.77;15.63;;;;;;;0.50;99.40;100209.16;1725822;83;25634;-45
2023/11/19 10:19:23;;;;;;;26.77;15.83;;;;;;;0.49;99.41;100212.06;1725606;83;25827;-44
2023/11/19 10:21:50;;;;;;;30.08;16.87;;;;;;;0.49;99.54;100206.74;1725711;83;25412;-44
2023/11/19 10:24:17;;;;;;;25.30;15.08;;;;;;;0.47;99.78;100204.86;1725654;83;27439;-45
2023/11/19 10:38:16;;;;;;;29.02;15.98;;;;;;;0.49;99.99;100179.59;1783636;76;27417;-43
2023/11/19 10:40:42;;;;;;;30.52;17.20;;;;;;;0.47;99.49;100172.38;1776332;80;25675;-44
2023/11/19 10:43:09;;;;;;;31.20;16.50;;;;;;;0.44;99.62;100168.88;1776370;80;25605;-45
2023/11/19 10:45:38;;;;;;;27.50;14.87;;;;;;;0.45;99.54;100165.71;1755257;80;25469;-46
2023/11/19 10:48:07;;;;;;;29.60;15.50;;;;;;;0.41;99.58;100154.75;1777323;80;25541;-44
2023/11/19 10:50:36;;;;;;;28.65;16.90;;;;;;;0.47;100.00;100160.41;1777462;80;27463;-43
2023/11/19 10:53:05;;;;;;;30.02;16.23;;;;;;;0.49;100.00;100147.66;1777287;80;25560;-48
2023/11/19 10:55:40;;;;;;;24.80;14.23;;;;;;;0.52;100.00;100143.72;1777541;80;25633;-45
2023/11/19 10:58:12;;;;;;;26.62;15.13;;;;;;;0.50;99.92;100141.83;1777395;80;26163;-43
2023/11/19 11:00:48;;;;;;;28.85;16.70;;;;;;;0.52;100.00;100139.72;1755747;80;25624;-47
2023/11/19 11:03:22;;;;;;;28.15;15.80;;;;;;;0.52;100.00;100131.20;1777467;80;28300;-44
2023/11/19 11:05:51;;;;;;;29.25;16.97;;;;;;;0.50;99.85;100127.19;1777463;80;25632;-44
2023/11/19 11:08:19;;;;;;;28.07;15.30;;;;;;;0.51;100.00;100128.28;1777699;80;25402;-44
2023/11/19 11:10:55;;;;;;;27.77;16.00;;;;;;;0.50;100.00;100118.67;1777425;80;26156;-43
2023/11/19 11:13:29;;;;;;;27.87;15.72;;;;;;;0.47;99.76;100120.48;1773015;80;25400;-42
2023/11/19 11:16:01;;;;;;;32.75;16.67;;;;;;;0.46;99.83;100102.10;1777443;80;28352;-44
2023/11/19 11:18:28;;;;;;;30.72;17.62;;;;;;;0.43;99.96;100098.09;1777381;80;25561;-43
2023/11/19 11:21:08;;;;;;;34.40;18.30;;;;;;;0.42;100.00;100088.48;1777407;80;25585;-45
2023/11/19 11:24:03;;;;;;;31.97;17.55;;;;;;;0.43;100.00;100084.78;1777491;80;26105;-43